Data for 10/26/2014

Time Sea-Level Adjusted Pressure Absolute Pressure Temperature Relative Humidity Dew Point   
(mb) (inHg) (mb) (inHg) (C) (F) (%) (C) (F)
00:05 1011 29.85 840 24.81 12.5 54.5 44 0.7 33.3
00:10 1011 29.85 840 24.81 12.7 54.9 45 1.2 34.2
00:15 1011 29.85 840 24.81 12.9 55.1 46 1.7 35
00:20 1011 29.85 840 24.81 13 55.4 50 2.8 37.1
00:25 1011 29.85 840 24.81 12.8 55.1 53 3.5 38.4
00:30 1011 29.85 840 24.81 12.3 54.1 56 3.9 39.1
00:35 1011 29.85 840 24.81 11.6 52.9 59 4 39.3
00:40 1011 29.85 840 24.81 11 51.9 64 4.5 40
00:45 1012 29.88 841 24.83 10.5 51 66 4.4 39.9
00:50 1012 29.88 841 24.83 10.3 50.6 65 4 39.2
00:55 1012 29.88 841 24.83 10.2 50.3 64 3.8 38.8
01:00 1012 29.88 841 24.83 10 50.1 63 3.4 38.2
01:05 1012 29.88 841 24.83 10 49.9 64 3.6 38.5
01:10 1011 29.85 841 24.83 9.9 49.8 63 3.2 37.7
01:15 1011 29.85 841 24.83 9.8 49.7 63 3.1 37.5
01:20 1011 29.85 841 24.83 9.8 49.6 63 3.2 37.8
01:25 1011 29.85 840 24.81 9.6 49.3 65 3.4 38.1
01:30 1011 29.85 840 24.81 9.5 49.2 65 3.2 37.8
01:35 1011 29.85 840 24.81 9.6 49.2 65 3.3 38
01:40 1011 29.85 840 24.81 9.4 48.9 63 2.7 36.9
01:45 1011 29.85 840 24.81 9.7 49.5 61 2.6 36.6
01:50 1011 29.85 840 24.81 10 50 62 3 37.4
01:55 1010 29.83 840 24.81 10 50 62 3.1 37.5
02:00 1010 29.83 840 24.81 9.9 49.8 60 2.4 36.4
02:05 1010 29.83 840 24.81 10.4 50.8 53 1.4 34.4
02:10 1010 29.83 840 24.81 11 51.8 52 1.6 35
02:15 1011 29.85 840 24.81 11.1 51.9 58 3 37.5
02:20 1011 29.85 840 24.81 10.2 50.4 62 3.3 38
02:25 1011 29.85 840 24.81 9.9 49.9 61 2.9 37.2
02:30 1011 29.85 840 24.81 10.1 50.2 59 2.4 36.3
02:35 1011 29.85 840 24.81 10.2 50.4 60 2.8 37.1
02:40 1011 29.85 840 24.81 10.1 50.2 59 2.4 36.4
02:45 1011 29.85 840 24.81 10.2 50.3 59 2.5 36.4
02:50 1011 29.85 840 24.81 10.2 50.4 59 2.6 36.6
02:55 1010 29.83 840 24.81 10.1 50.2 60 2.7 36.8
03:00 1010 29.83 840 24.81 9.8 49.6 61 2.7 36.8
03:05 1010 29.83 839 24.78 9.6 49.3 59 2.1 35.8
03:10 1010 29.83 840 24.81 9.9 49.9 59 2.3 36.2
03:15 1010 29.83 840 24.81 9.9 49.8 59 2.4 36.3
03:20 1010 29.83 839 24.78 9.7 49.5 59 2 35.7
03:25 1010 29.83 839 24.78 9.8 49.6 58 2 35.5
03:30 1010 29.83 839 24.78 9.9 49.9 58 2.1 35.8
03:35 1010 29.83 839 24.78 9.9 49.7 58 2.1 35.7
03:40 1010 29.83 839 24.78 9.8 49.6 61 2.6 36.6
03:45 1010 29.83 839 24.78 9.6 49.3 57 1.5 34.6
03:50 1010 29.83 839 24.78 9.8 49.7 56 1.4 34.5
03:55 1010 29.83 840 24.81 9.9 49.8 57 1.8 35.2
04:00 1010 29.83 840 24.81 9.7 49.5 58 2 35.6
04:05 1010 29.83 840 24.81 9.4 49 59 1.9 35.3
04:10 1010 29.83 840 24.81 9.2 48.6 58 1.5 34.7
04:15 1010 29.83 840 24.81 9.1 48.4 58 1.2 34.2
04:20 1010 29.83 840 24.81 9 48.2 58 1.1 34
04:25 1010 29.83 840 24.81 9.2 48.5 59 1.5 34.8
04:30 1010 29.83 840 24.81 8.7 47.7 61 1.7 35.1
04:35 1010 29.83 840 24.81 8.2 46.8 61 1.1 34
04:40 1010 29.83 839 24.78 8.6 47.6 58 1 33.7
04:45 1010 29.83 839 24.78 8.8 47.8 57 0.8 33.4
04:50 1010 29.83 839 24.78 9 48.1 56 0.7 33.3
04:55 1010 29.83 839 24.78 9.1 48.5 55 0.7 33.2
05:00 1010 29.83 839 24.78 9.3 48.8 54 0.6 33
05:05 1010 29.83 840 24.81 9.4 48.8 54 0.5 32.9
05:10 1010 29.83 840 24.81 9.3 48.8 54 0.5 32.9
05:15 1010 29.83 840 24.81 9.3 48.7 53 0.3 32.5
05:20 1010 29.83 840 24.81 9 48.2 57 1 33.7
05:25 1010 29.83 840 24.81 8.6 47.4 57 0.6 33.2
05:30 1010 29.83 840 24.81 8.4 47.1 62 1.6 34.9
05:35 1010 29.83 839 24.78 7.7 45.8 63 1.1 34
05:40 1010 29.83 839 24.78 7.4 45.2 64 0.9 33.7
05:45 1010 29.83 839 24.78 7.3 45.1 63 0.7 33.3
05:50 1010 29.83 839 24.78 7.5 45.4 63 0.8 33.5
05:55 1010 29.83 839 24.78 7.6 45.7 63 1.1 34
06:00 1010 29.83 839 24.78 7.8 46 61 0.8 33.4
06:05 1010 29.83 839 24.78 8 46.3 60 0.8 33.4
06:10 1010 29.83 839 24.78 8.2 46.7 57 0.1 32.2
06:15 1010 29.83 839 24.78 8.6 47.5 55 0.1 32.2
06:20 1010 29.83 839 24.78 8.5 47.2 55 -0 32
06:25 1010 29.83 839 24.78 8.6 47.5 54 -0.1 31.8
06:30 1010 29.83 839 24.78 9 48.1 52 -0.5 31.2
06:35 1010 29.83 839 24.78 9.1 48.4 50 -0.7 30.7
06:40 1010 29.83 839 24.78 9.2 48.5 51 -0.5 31.1
06:45 1010 29.83 840 24.81 9 48.2 51 -0.5 31.2
06:50 1010 29.83 840 24.81 8.8 47.8 53 -0.3 31.5
06:55 1010 29.83 840 24.81 8.7 47.6 53 -0.4 31.3
07:00 1011 29.85 840 24.81 9 48.1 48 -1.4 29.5
07:05 1011 29.85 840 24.81 9.4 48.9 48 -1.1 30.1
07:10 1011 29.85 840 24.81 9.2 48.5 51 -0.4 31.2
07:15 1011 29.85 840 24.81 9.2 48.6 46 -1.8 28.8
07:20 1011 29.85 840 24.81 9.6 49.3 45 -1.6 29.1
07:25 1011 29.85 840 24.81 9.7 49.4 46 -1.4 29.4
07:30 1011 29.85 840 24.81 9.7 49.5 45 -1.6 29.1
07:35 1011 29.85 840 24.81 9.8 49.7 44 -1.7 28.9
07:40 1011 29.85 840 24.81 9.9 49.9 44 -1.8 28.8
07:45 1011 29.85 840 24.81 10 50 44 -1.5 29.2
07:50 1011 29.85 840 24.81 9.9 49.9 48 -0.6 30.9
07:55 1011 29.85 840 24.81 9.4 48.9 52 0.1 32.2
08:00 1011 29.85 840 24.81 9 48.1 51 -0.6 30.9
08:05 1011 29.85 840 24.81 9 48.2 50 -0.8 30.6
08:10 1011 29.85 841 24.83 9 48.1 54 0.3 32.5
08:15 1011 29.85 841 24.83 8.5 47.3 57 0.5 32.9
08:20 1012 29.88 841 24.83 8.1 46.6 58 0.5 32.8
08:25 1012 29.88 841 24.83 7.9 46.2 59 0.4 32.8
08:30 1012 29.88 841 24.83 7.8 46.1 59 0.4 32.7
08:35 1012 29.88 841 24.83 7.7 45.9 60 0.4 32.7
08:40 1012 29.88 841 24.83 7.7 45.8 60 0.5 32.8
08:45 1012 29.88 841 24.83 7.6 45.7 60 0.3 32.6
08:50 1012 29.88 841 24.83 7.6 45.6 60 0.2 32.4
08:55 1012 29.88 841 24.83 7.6 45.7 60 0.3 32.5
09:00 1012 29.88 841 24.83 7.8 46 59 0.3 32.6
09:05 1012 29.88 841 24.83 7.8 46 59 0.3 32.5
09:10 1012 29.88 841 24.83 8.1 46.5 57 0.2 32.3
09:15 1012 29.88 841 24.83 8.6 47.5 56 0.3 32.6
09:20 1012 29.88 841 24.83 8.5 47.2 57 0.4 32.8
09:25 1012 29.88 841 24.83 8.2 46.8 57 0.2 32.4
09:30 1012 29.88 841 24.83 8.2 46.7 57 0.2 32.3
09:35 1012 29.88 841 24.83 8.2 46.8 57 0.3 32.5
09:40 1012 29.88 841 24.83 8.3 46.9 58 0.4 32.8
09:45 1012 29.88 841 24.83 8.2 46.8 59 0.6 33.1
09:50 1012 29.88 841 24.83 8.6 47.4 57 0.5 32.9
09:55 1012 29.88 841 24.83 8.7 47.7 58 0.8 33.5
10:00 1012 29.88 841 24.83 9 48.1 55 0.5 32.8
10:05 1012 29.88 841 24.83 9.3 48.7 53 0.3 32.6
10:10 1012 29.88 841 24.83 9.3 48.7 53 0.1 32.2
10:15 1012 29.88 841 24.83 9 48.3 53 0.1 32.2
10:20 1012 29.88 841 24.83 9 48.2 54 0.2 32.4
10:25 1012 29.88 841 24.83 8.8 47.9 53 -0.2 31.6
10:30 1012 29.88 841 24.83 8.5 47.4 53 -0.4 31.3
10:35 1012 29.88 841 24.83 8.3 47 54 -0.4 31.4
10:40 1012 29.88 841 24.83 8 46.4 55 -0.3 31.4
10:45 1012 29.88 841 24.83 8 46.5 55 -0.5 31.1
10:50 1012 29.88 841 24.83 8.1 46.5 54 -0.6 31
10:55 1012 29.88 842 24.86 7.9 46.3 56 -0.2 31.7
11:00 1012 29.88 842 24.86 7.6 45.7 60 0.3 32.6
11:05 1013 29.91 842 24.86 7.4 45.3 61 0.5 32.8
11:10 1013 29.91 842 24.86 7.2 45 67 1.4 34.5
11:15 1013 29.91 842 24.86 6.6 43.8 71 1.7 35
11:20 1013 29.91 842 24.86 6.3 43.3 72 1.7 35.1
11:25 1013 29.91 842 24.86 6.3 43.3 72 1.5 34.7
11:30 1013 29.91 842 24.86 6.2 43.2 71 1.4 34.5
11:35 1013 29.91 842 24.86 6.4 43.5 68 0.9 33.7
11:40 1013 29.91 842 24.86 6.4 43.5 66 0.4 32.8
11:45 1013 29.91 842 24.86 6.5 43.7 66 0.6 33.1
11:50 1013 29.91 842 24.86 6.5 43.6 65 0.4 32.7
11:55 1013 29.91 842 24.86 6.4 43.5 66 0.4 32.8
12:00 1013 29.91 842 24.86 6.5 43.6 63 -0 32
12:05 1013 29.91 842 24.86 6.5 43.7 62 -0.2 31.6
12:10 1013 29.91 842 24.86 6.6 43.9 63 0.2 32.3
12:15 1012 29.88 842 24.86 6.6 43.9 65 0.5 32.9
12:20 1012 29.88 842 24.86 6.1 42.9 67 0.5 32.8
12:25 1013 29.91 842 24.86 5.8 42.5 69 0.6 33.1
12:30 1013 29.91 842 24.86 5.5 41.9 70 0.4 32.8
12:35 1013 29.91 842 24.86 5.2 41.4 71 0.5 32.9
12:40 1013 29.91 842 24.86 5.3 41.6 67 -0.3 31.5
12:45 1013 29.91 842 24.86 4.9 40.8 73 0.4 32.7
12:50 1013 29.91 842 24.86 4.5 40.1 73 0.1 32.2
12:55 1013 29.91 842 24.86 4.3 39.8 77 0.6 33
13:00 1013 29.91 842 24.86 4.2 39.5 75 0.1 32.2
13:05 1013 29.91 842 24.86 4.1 39.4 76 0.3 32.5
13:10 1013 29.91 842 24.86 4.1 39.4 78 0.6 33.1
13:15 1013 29.91 842 24.86 4.1 39.5 74 -0.1 31.7
13:20 1013 29.91 842 24.86 4.5 40.1 70 -0.5 31.1
13:25 1013 29.91 842 24.86 4.7 40.4 67 -1 30.2
13:30 1013 29.91 842 24.86 4.7 40.5 71 -0.1 31.9
13:35 1013 29.91 842 24.86 4.6 40.3 71 -0.2 31.6
13:40 1013 29.91 842 24.86 4.7 40.4 71 -0.2 31.6
13:45 1013 29.91 842 24.86 4.7 40.5 68 -0.7 30.8
13:50 1013 29.91 842 24.86 4.8 40.7 68 -0.7 30.8
13:55 1013 29.91 842 24.86 4.8 40.6 69 -0.4 31.3
14:00 1013 29.91 842 24.86 4.7 40.5 69 -0.5 31
14:05 1013 29.91 842 24.86 4.8 40.7 71 0 32
14:10 1013 29.91 842 24.86 4.7 40.4 74 0.4 32.7
14:15 1013 29.91 842 24.86 4.7 40.4 76 0.8 33.5
14:20 1013 29.91 842 24.86 4.7 40.4 78 1.2 34.2
14:25 1013 29.91 842 24.86 4.2 39.6 78 0.8 33.4
14:30 1012 29.88 842 24.86 4.2 39.6 77 0.6 33.1
14:35 1012 29.88 842 24.86 4.6 40.3 74 0.3 32.5
14:40 1012 29.88 842 24.86 4.9 40.9 68 -0.5 31.1
14:45 1012 29.88 841 24.83 5.4 41.6 66 -0.6 31
14:50 1012 29.88 841 24.83 6 42.9 65 -0.1 31.8
14:55 1012 29.88 841 24.83 6.6 43.9 59 -0.9 30.4
15:00 1012 29.88 841 24.83 7 44.7 55 -1.4 29.5
15:05 1012 29.88 841 24.83 7.2 45 52 -2 28.4
15:10 1012 29.88 841 24.83 7.2 44.9 53 -1.7 28.9
15:15 1012 29.88 841 24.83 7.1 44.8 54 -1.6 29.1
15:20 1012 29.88 842 24.86 6.8 44.2 56 -1.5 29.3
15:25 1012 29.88 842 24.86 6.7 44.1 54 -1.9 28.6
15:30 1012 29.88 842 24.86 6.8 44.2 52 -2.2 28
15:35 1012 29.88 842 24.86 6.8 44.2 52 -2.3 27.8
15:40 1012 29.88 842 24.86 6.9 44.4 48 -3.4 25.9
15:45 1012 29.88 842 24.86 7.1 44.8 48 -3.2 26.3
15:50 1013 29.91 842 24.86 7.1 44.8 46 -3.7 25.4
15:55 1013 29.91 842 24.86 7.1 44.8 49 -3 26.7
16:00 1012 29.88 842 24.86 6.8 44.2 51 -2.7 27.1
16:05 1012 29.88 842 24.86 6.7 44 50 -2.9 26.8
16:10 1012 29.88 842 24.86 6.8 44.3 49 -3.2 26.3
16:15 1012 29.88 842 24.86 6.9 44.4 48 -3.3 26
16:20 1012 29.88 841 24.83 6.8 44.2 48 -3.4 25.9
16:25 1012 29.88 841 24.83 6.7 44 49 -3.2 26.3
16:30 1012 29.88 842 24.86 6.4 43.6 50 -3.3 26.1
16:35 1012 29.88 842 24.86 6.3 43.3 50 -3.3 26
16:40 1012 29.88 841 24.83 6.1 43 51 -3.3 26
16:45 1012 29.88 841 24.83 6.1 43 49 -3.7 25.3
16:50 1012 29.88 841 24.83 6.2 43.1 49 -3.7 25.3
16:55 1012 29.88 841 24.83 6.1 43 50 -3.5 25.6
17:00 1012 29.88 841 24.83 6 42.8 50 -3.6 25.6
17:05 1012 29.88 842 24.86 5.8 42.5 51 -3.5 25.6
17:10 1012 29.88 842 24.86 5.7 42.3 51 -3.7 25.3
17:15 1013 29.91 842 24.86 5.6 42 51 -3.8 25.2
17:20 1013 29.91 842 24.86 5.5 41.9 51 -3.8 25.2
17:25 1013 29.91 842 24.86 5.4 41.7 51 -3.8 25.1
17:30 1013 29.91 842 24.86 5.4 41.7 51 -3.9 24.9
17:35 1013 29.91 842 24.86 5.4 41.7 51 -3.8 25.1
17:40 1013 29.91 842 24.86 5.4 41.7 50 -4.2 24.5
17:45 1013 29.91 842 24.86 5.4 41.7 50 -4.1 24.6
17:50 1013 29.91 842 24.86 5.3 41.6 50 -4.3 24.2
17:55 1013 29.91 842 24.86 5.3 41.5 49 -4.7 23.6
18:00 1013 29.91 842 24.86 5.3 41.6 48 -4.7 23.5
18:05 1013 29.91 842 24.86 5.4 41.6 49 -4.6 23.8
18:10 1013 29.91 842 24.86 5.3 41.5 49 -4.5 23.9
18:15 1013 29.91 842 24.86 5.2 41.4 48 -4.9 23.2
18:20 1013 29.91 842 24.86 5.3 41.5 48 -4.9 23.2
18:25 1013 29.91 842 24.86 5.3 41.5 48 -4.8 23.4
18:30 1013 29.91 842 24.86 5.2 41.3 47 -5.1 22.8
18:35 1013 29.91 842 24.86 5.3 41.6 47 -5.1 22.9
18:40 1013 29.91 842 24.86 5.3 41.5 48 -4.8 23.4
18:45 1013 29.91 842 24.86 5.2 41.3 49 -4.8 23.4
18:50 1013 29.91 842 24.86 5.1 41.2 48 -5 23.1
18:55 1013 29.91 842 24.86 5.2 41.3 48 -5 23.1
19:00 1013 29.91 842 24.86 5.1 41.2 48 -5 23
19:05 1013 29.91 842 24.86 5.1 41.1 48 -5 22.9
19:10 1013 29.91 842 24.86 5 41 48 -5 23
19:15 1013 29.91 842 24.86 4.8 40.6 50 -4.8 23.3
19:20 1013 29.91 842 24.86 4.6 40.3 50 -5 23
19:25 1013 29.91 842 24.86 4.5 40.1 50 -5 23
19:30 1013 29.91 842 24.86 4.4 40 51 -4.9 23.1
19:35 1013 29.91 843 24.89 4.4 40 50 -5.1 22.8
19:40 1013 29.91 843 24.89 4.3 39.8 52 -4.8 23.4
19:45 1013 29.91 843 24.89 4.1 39.3 52 -4.8 23.3
19:50 1014 29.94 843 24.89 4 39.2 53 -4.6 23.7
19:55 1014 29.94 843 24.89 3.8 38.9 55 -4.4 24.1
20:00 1014 29.94 843 24.89 3.6 38.5 56 -4.3 24.2
20:05 1014 29.94 843 24.89 3.5 38.3 56 -4.6 23.8
20:10 1014 29.94 843 24.89 3.6 38.4 56 -4.5 23.9
20:15 1014 29.94 843 24.89 3.5 38.3 56 -4.4 24.1
20:20 1013 29.91 843 24.89 3.3 38 57 -4.4 24.1
20:25 1013 29.91 843 24.89 3.2 37.8 57 -4.6 23.8
20:30 1013 29.91 843 24.89 3.1 37.5 57 -4.7 23.5
20:35 1013 29.91 843 24.89 3 37.4 55 -5.2 22.7
20:40 1014 29.94 843 24.89 3 37.4 56 -5 22.9
20:45 1014 29.94 843 24.89 2.8 37.1 57 -4.9 23.3
20:50 1013 29.91 843 24.89 2.7 36.9 55 -5.3 22.4
20:55 1014 29.94 843 24.89 2.9 37.2 55 -5.3 22.5
21:00 1014 29.94 843 24.89 2.8 37 55 -5.3 22.4
21:05 1014 29.94 843 24.89 2.8 37 55 -5.3 22.4
21:10 1014 29.94 843 24.89 2.8 37.1 56 -5.2 22.7
21:15 1014 29.94 843 24.89 2.8 37 57 -4.9 23.1
21:20 1014 29.94 843 24.89 2.6 36.7 58 -4.9 23.2
21:25 1014 29.94 843 24.89 2.5 36.5 58 -4.9 23.2
21:30 1014 29.94 843 24.89 2.4 36.4 58 -4.9 23.1
21:35 1014 29.94 843 24.89 2.5 36.6 58 -5 23
21:40 1014 29.94 843 24.89 2.7 36.9 57 -5 23.1
21:45 1014 29.94 843 24.89 2.8 37.1 56 -5 23
21:50 1014 29.94 843 24.89 2.8 37 58 -4.7 23.5
21:55 1014 29.94 843 24.89 2.5 36.6 59 -4.7 23.6
22:00 1014 29.94 843 24.89 2.3 36.1 59 -5 23
22:05 1014 29.94 843 24.89 2.2 36 59 -5.1 22.9
22:10 1014 29.94 843 24.89 2.3 36.1 57 -5.2 22.6
22:15 1014 29.94 843 24.89 2.4 36.3 58 -5.1 22.8
22:20 1014 29.94 843 24.89 2.3 36.2 57 -5.3 22.4
22:25 1014 29.94 844 24.92 2.4 36.2 57 -5.3 22.4
22:30 1014 29.94 844 24.92 2.4 36.4 56 -5.4 22.2
22:35 1014 29.94 844 24.92 2.6 36.6 55 -5.5 22.1
22:40 1014 29.94 844 24.92 2.7 36.9 54 -5.6 21.9
22:45 1014 29.94 844 24.92 2.8 37 55 -5.5 22.1
22:50 1015 29.97 844 24.92 2.8 37.1 54 -5.6 21.9
22:55 1014 29.94 844 24.92 3 37.4 53 -5.7 21.8
23:00 1014 29.94 844 24.92 3.2 37.7 52 -5.6 21.8
23:05 1014 29.94 844 24.92 3.3 37.9 53 -5.5 22.1
23:10 1014 29.94 844 24.92 3.4 38 53 -5.4 22.2
23:15 1014 29.94 843 24.89 3.4 38.1 51 -5.8 21.6
23:20 1014 29.94 843 24.89 3.5 38.2 52 -5.4 22.2
23:25 1014 29.94 843 24.89 3.3 37.9 52 -5.6 21.9
23:30 1014 29.94 844 24.92 3.3 37.9 53 -5.5 22.1
23:35 1014 29.94 844 24.92 3.2 37.8 53 -5.4 22.3
23:40 1014 29.94 844 24.92 3.1 37.6 53 -5.6 21.8
23:45 1014 29.94 844 24.92 3.2 37.7 52 -5.7 21.7
23:50 1014 29.94 844 24.92 3.2 37.7 52 -5.6 21.9
23:55 1014 29.94 844 24.92 3.1 37.7 53 -5.5 22.1
24:00 1014 29.94 844 24.92 3.1 37.5 53 -5.5 22.1